Senshu Maru — JCIR — position and weather

sailwx.info

Track history (hours):
 
Tides and Currents Weather Stations Pressure Air Temp Water Temp Dewpoint Dewpoint Depression Visibility Wind Speed Wind Dir Waves Ship Positions

Oceanographic research ship Senshu Maru (Japan)

Detailed information on ship capabilities available from University of Delaware's Ocean Information Center.

Last reported at 2015-Mar-23 04:23 UTC. Time now 2015-Mar-28 00:37 UTC.
Position N 33°57' E 134°55'.

Length 283 m; beam 44.8 m.

Type: Ship (hazmat cat A). MMSI: 431023000.

Date/timePositionNaut miles runAvg speedWind from/ knotsBaromVisibWave heightAir tempDewpointWater temp
2015-Mar-23 04:23N 33°57' E 134°55'1012.7
2015-Mar-23 03:33N 34°08' E 134°56'9 9.5
2015-Mar-23 02:33N 34°17' E 134°59'1111.5
2015-Mar-23 01:34N 34°26' E 135°07'1312.7
2015-Mar-23 00:33N 34°33' E 135°20'4 3.5
2015-Mar-22 23:29N 34°33' E 135°24'0 0.0
2015-Mar-22 01:17N 34°33' E 135°24'3 3.6
2015-Mar-22 00:33N 34°33' E 135°21'1111.1
2015-Mar-21 23:33N 34°27' E 135°10'1313.4
2015-Mar-21 22:33N 34°17' E 134°59'1010.0
2015-Mar-21 21:33N 34°07' E 135°00'8 8.0
2015-Mar-21 20:33N 33°59' E 134°58'1313.0
2015-Mar-21 19:33N 33°46' E 134°58'5011.4
2015-Mar-21 15:09N 32°56' E 134°59'  
Track history (hours):
 
Tides and Currents Weather Stations Pressure Air Temp Water Temp Dewpoint Dewpoint Depression Visibility Wind Speed Wind Dir Waves Ship Positions

Oceanographic research ship Senshu Maru (Japan)

Detailed information on ship capabilities available from University of Delaware's Ocean Information Center.

Last reported at 2015-Mar-23 04:23 UTC. Time now 2015-Mar-28 00:37 UTC.
Position N 33°57' E 134°55'.

Length 283 m; beam 44.8 m.

Type: Ship (hazmat cat A). MMSI: 431023000.

Date/timePositionNaut miles runAvg speedWind from/ knotsBaromVisibWave heightAir tempDewpointWater temp
2015-Mar-23 04:23N 33°57' E 134°55'1012.7
2015-Mar-23 03:33N 34°08' E 134°56'9 9.5
2015-Mar-23 02:33N 34°17' E 134°59'1111.5
2015-Mar-23 01:34N 34°26' E 135°07'1312.7
2015-Mar-23 00:33N 34°33' E 135°20'4 3.5
2015-Mar-22 23:29N 34°33' E 135°24'0 0.0
2015-Mar-22 01:17N 34°33' E 135°24'3 3.6
2015-Mar-22 00:33N 34°33' E 135°21'1111.1
2015-Mar-21 23:33N 34°27' E 135°10'1313.4
2015-Mar-21 22:33N 34°17' E 134°59'1010.0
2015-Mar-21 21:33N 34°07' E 135°00'8 8.0
2015-Mar-21 20:33N 33°59' E 134°58'1313.0
2015-Mar-21 19:33N 33°46' E 134°58'5011.4
2015-Mar-21 15:09N 32°56' E 134°59'  

Dump ship's entire track history